createdAt,value
2022-12-09T00:01:21.037Z,12.25
2022-12-09T00:03:49.877Z,12.25
2022-12-09T00:06:26.265Z,19.25
2022-12-09T00:08:54.988Z,19.75
2022-12-09T00:11:23.745Z,21.00
2022-12-09T00:13:56.839Z,18.75
2022-12-09T00:16:25.700Z,10.75
2022-12-09T00:18:53.608Z,9.00
2022-12-09T00:21:23.728Z,11.00
2022-12-09T00:23:53.138Z,18.25
2022-12-09T00:26:22.348Z,13.50
2022-12-09T00:28:51.559Z,15.50
2022-12-09T00:31:24.111Z,13.00
2022-12-09T00:33:52.818Z,14.25
2022-12-09T00:36:22.774Z,15.50
2022-12-09T00:38:50.736Z,8.00
2022-12-09T00:41:18.796Z,11.25
2022-12-09T00:43:48.559Z,9.00
2022-12-09T00:46:17.077Z,15.25
2022-12-09T00:48:46.156Z,9.50
2022-12-09T00:51:20.370Z,13.25
2022-12-09T00:53:48.167Z,26.20
2022-12-09T00:56:15.899Z,7.40
2022-12-09T00:58:43.876Z,10.50
2022-12-09T01:01:11.726Z,13.40
2022-12-09T01:03:39.693Z,15.60
2022-12-09T01:06:17.576Z,9.60
2022-12-09T01:08:47.298Z,20.20
2022-12-09T01:11:25.470Z,22.20
2022-12-09T01:13:54.174Z,9.60
2022-12-09T01:16:25.930Z,19.40
2022-12-09T01:18:56.064Z,14.80
2022-12-09T01:21:25.152Z,9.60
2022-12-09T01:23:53.125Z,15.60
2022-12-09T01:26:21.622Z,14.80
2022-12-09T01:28:53.451Z,14.20
2022-12-09T01:31:24.346Z,10.00
2022-12-09T01:33:54.150Z,15.80
2022-12-09T01:36:24.546Z,11.60
2022-12-09T01:38:53.223Z,13.40
2022-12-09T01:41:22.296Z,16.40
2022-12-09T01:44:09.801Z,10.80
2022-12-09T01:46:37.673Z,15.20
2022-12-09T01:49:07.651Z,19.80
2022-12-09T01:51:37.355Z,18.20
2022-12-09T01:54:05.016Z,14.40
2022-12-09T01:56:35.450Z,11.60
2022-12-09T01:59:10.491Z,16.00
2022-12-09T02:01:39.619Z,14.80
2022-12-09T02:04:07.886Z,12.20
2022-12-09T02:06:39.377Z,13.80
2022-12-09T02:09:10.578Z,7.20
2022-12-09T02:12:12.013Z,13.40
2022-12-09T02:14:59.627Z,13.40
2022-12-09T02:17:33.002Z,13.00
2022-12-09T02:20:28.375Z,12.80
2022-12-09T02:23:12.168Z,6.40
2022-12-09T02:25:45.273Z,16.40
2022-12-09T02:28:41.023Z,15.80
2022-12-09T02:31:37.300Z,11.80
2022-12-09T02:34:27.053Z,14.60
2022-12-09T02:37:21.397Z,16.60
2022-12-09T02:40:03.173Z,16.20
2022-12-09T02:42:35.799Z,16.60
2022-12-09T02:45:08.276Z,16.80
2022-12-09T02:47:44.283Z,7.00
2022-12-09T02:50:17.331Z,14.60
2022-12-09T02:52:46.193Z,12.60
2022-12-09T02:55:17.161Z,10.80
2022-12-09T02:57:45.193Z,12.60
2022-12-09T03:00:15.791Z,12.20
2022-12-09T03:02:48.062Z,19.40
2022-12-09T03:05:29.346Z,21.60
2022-12-09T03:08:15.735Z,13.00
2022-12-09T03:10:52.190Z,17.20
2022-12-09T03:13:38.258Z,6.40
2022-12-09T03:16:19.406Z,19.40
2022-12-09T03:18:52.992Z,10.80
2022-12-09T03:21:24.596Z,11.20
2022-12-09T03:23:55.540Z,14.60
2022-12-09T03:26:28.610Z,10.40
2022-12-09T03:28:59.163Z,12.40
2022-12-09T03:31:30.022Z,12.20
2022-12-09T03:34:01.319Z,12.20
2022-12-09T03:36:38.030Z,11.40
2022-12-09T03:39:10.630Z,8.80
2022-12-09T03:41:42.694Z,12.60
2022-12-09T03:44:47.004Z,8.60
2022-12-09T03:47:15.177Z,12.60
2022-12-09T03:49:42.824Z,14.60
2022-12-09T03:52:28.128Z,17.00
2022-12-09T03:55:03.771Z,9.20
2022-12-09T03:57:36.514Z,15.20
2022-12-09T04:00:06.501Z,18.00
2022-12-09T04:02:40.687Z,18.40
2022-12-09T04:05:09.484Z,15.20
2022-12-09T04:07:37.226Z,13.80
2022-12-09T04:10:05.870Z,1.80
2022-12-09T04:12:33.940Z,12.40
2022-12-09T04:15:01.262Z,18.40
2022-12-09T04:17:28.963Z,13.00
2022-12-09T04:19:57.569Z,15.60
2022-12-09T04:22:25.020Z,7.00
2022-12-09T04:24:53.612Z,20.60
2022-12-09T04:27:21.174Z,10.00
2022-12-09T04:29:48.780Z,15.20
2022-12-09T04:32:16.620Z,13.00
2022-12-09T04:34:44.174Z,13.20
2022-12-09T04:37:11.695Z,9.20
2022-12-09T04:39:41.901Z,16.60
2022-12-09T04:42:09.928Z,10.00
2022-12-09T04:44:37.336Z,9.80
2022-12-09T04:47:05.043Z,15.60
2022-12-09T04:49:32.892Z,14.60
2022-12-09T04:52:00.764Z,19.40
2022-12-09T04:54:28.277Z,17.40
2022-12-09T04:56:55.760Z,13.80
2022-12-09T04:59:23.653Z,23.80
2022-12-09T05:01:51.530Z,12.40
2022-12-09T05:04:19.199Z,18.60
2022-12-09T05:06:47.285Z,22.80
2022-12-09T05:09:15.460Z,16.40
2022-12-09T05:11:43.361Z,30.80
2022-12-09T05:14:10.914Z,24.40
2022-12-09T05:16:38.604Z,16.80
2022-12-09T05:19:06.504Z,18.20
2022-12-09T05:21:34.557Z,16.00
2022-12-09T05:24:05.655Z,27.25
2022-12-09T05:26:33.401Z,17.60
2022-12-09T05:29:01.298Z,24.40
2022-12-09T05:31:29.092Z,19.40
2022-12-09T05:33:57.112Z,21.40
2022-12-09T05:36:27.774Z,13.00
2022-12-09T05:38:56.555Z,19.40
2022-12-09T05:41:25.169Z,15.40
2022-12-09T05:43:53.350Z,21.60
2022-12-09T05:46:21.608Z,9.80
2022-12-09T05:48:49.839Z,23.20
2022-12-09T05:51:31.234Z,19.40
2022-12-09T05:54:04.476Z,28.75
2022-12-09T05:56:33.395Z,17.40
2022-12-09T05:59:01.392Z,24.40
2022-12-09T06:01:29.277Z,19.00
2022-12-09T06:03:57.067Z,24.00
2022-12-09T06:06:35.436Z,29.00
2022-12-09T06:09:03.712Z,20.00
2022-12-09T06:11:33.334Z,23.00
2022-12-09T06:14:00.907Z,22.40
2022-12-09T06:16:28.340Z,20.00
2022-12-09T06:18:56.241Z,17.60
2022-12-09T06:21:24.506Z,21.00
2022-12-09T06:23:53.666Z,13.20
2022-12-09T06:26:29.930Z,20.60
2022-12-09T06:28:58.501Z,24.40
2022-12-09T06:31:27.683Z,17.00
2022-12-09T06:33:57.926Z,13.50
2022-12-09T06:36:28.231Z,13.75
2022-12-09T06:38:57.592Z,15.75
2022-12-09T06:41:26.205Z,23.50
2022-12-09T06:43:54.485Z,23.25
2022-12-09T06:46:23.679Z,15.75
2022-12-09T06:48:52.997Z,13.50
2022-12-09T06:51:22.198Z,20.75
2022-12-09T06:53:50.106Z,19.75
2022-12-09T06:56:17.849Z,8.00
2022-12-09T06:58:46.924Z,19.50
2022-12-09T07:01:21.819Z,26.25
2022-12-09T07:03:52.402Z,12.50
2022-12-09T07:06:31.140Z,9.00
2022-12-09T07:09:02.365Z,17.00
2022-12-09T07:11:31.044Z,16.50
2022-12-09T07:13:58.949Z,9.75
2022-12-09T07:16:27.635Z,4.00
2022-12-09T07:18:55.806Z,9.50
2022-12-09T07:21:25.085Z,10.50
2022-12-09T07:23:53.305Z,12.25
2022-12-09T07:26:21.620Z,18.00
2022-12-09T07:28:50.755Z,17.50
2022-12-09T07:31:25.388Z,10.25
2022-12-09T07:33:55.265Z,13.75
2022-12-09T07:36:26.499Z,12.75
2022-12-09T07:39:02.339Z,11.00
2022-12-09T07:41:30.375Z,16.50
2022-12-09T07:43:58.570Z,16.75
2022-12-09T07:46:28.091Z,9.50
2022-12-09T07:48:57.827Z,9.25
2022-12-09T07:51:26.844Z,15.00
2022-12-09T07:53:54.906Z,9.00
2022-12-09T07:56:24.041Z,13.60
2022-12-09T07:58:54.282Z,10.80
2022-12-09T08:01:25.491Z,9.20
2022-12-09T08:03:54.492Z,7.40
2022-12-09T08:06:26.229Z,12.00
2022-12-09T08:08:55.247Z,8.80
2022-12-09T08:11:26.551Z,8.80
2022-12-09T08:13:58.286Z,8.20
2022-12-09T08:16:27.007Z,10.40
2022-12-09T08:18:56.379Z,11.00
2022-12-09T08:21:27.933Z,10.60
2022-12-09T08:23:58.258Z,11.80
2022-12-09T08:26:28.656Z,7.60
2022-12-09T08:28:57.252Z,3.80
2022-12-09T08:31:27.407Z,11.40
2022-12-09T08:33:56.742Z,7.60
2022-12-09T08:36:27.231Z,5.40
2022-12-09T08:38:56.342Z,6.40
2022-12-09T08:41:35.796Z,9.00
2022-12-09T08:44:12.879Z,9.60
2022-12-09T08:46:43.645Z,7.00
2022-12-09T08:49:13.520Z,5.60
2022-12-09T08:51:41.403Z,8.20
2022-12-09T08:54:09.273Z,6.60
2022-12-09T08:56:37.441Z,5.80
2022-12-09T08:59:05.493Z,8.60
2022-12-09T09:01:36.069Z,4.80
2022-12-09T09:04:12.501Z,4.60
2022-12-09T09:06:42.280Z,3.80
2022-12-09T09:09:12.534Z,3.60
2022-12-09T09:11:41.329Z,3.60
2022-12-09T09:14:11.610Z,4.80
2022-12-09T09:16:41.880Z,6.20
2022-12-09T09:19:13.373Z,6.60
2022-12-09T09:21:41.729Z,3.60
2022-12-09T09:24:15.463Z,7.20
2022-12-09T09:26:44.191Z,5.00
2022-12-09T09:29:13.631Z,6.60
2022-12-09T09:31:42.101Z,6.00
2022-12-09T09:34:11.329Z,4.20
2022-12-09T09:36:41.166Z,8.80
2022-12-09T09:39:09.137Z,5.00
2022-12-09T09:42:14.059Z,7.00
2022-12-09T09:44:50.085Z,8.20
2022-12-09T09:47:39.933Z,8.80
2022-12-09T09:50:19.750Z,7.80
2022-12-09T09:52:47.968Z,4.80
2022-12-09T09:55:18.460Z,5.60
2022-12-09T09:58:02.815Z,6.20
2022-12-09T10:00:48.606Z,9.00
2022-12-09T10:03:39.752Z,13.40
2022-12-09T10:06:35.497Z,13.80
2022-12-09T10:09:11.614Z,4.80
2022-12-09T10:11:50.706Z,4.40
2022-12-09T10:14:49.626Z,6.20
2022-12-09T10:17:29.392Z,5.20
2022-12-09T10:20:21.535Z,9.20
2022-12-09T10:22:53.166Z,6.00
2022-12-09T10:25:26.707Z,7.00
2022-12-09T10:28:09.396Z,7.20
2022-12-09T10:30:44.231Z,4.80
2022-12-09T10:33:14.656Z,5.00
2022-12-09T10:35:43.380Z,9.40
2022-12-09T10:38:16.948Z,6.20
2022-12-09T10:40:48.093Z,4.20
2022-12-09T10:43:37.404Z,9.60
2022-12-09T10:46:21.773Z,15.60
2022-12-09T10:48:50.452Z,6.60
2022-12-09T10:51:22.934Z,15.40
2022-12-09T10:54:21.964Z,10.40
2022-12-09T10:57:08.173Z,5.00
2022-12-09T10:59:37.606Z,14.60
2022-12-09T11:02:11.068Z,8.80
2022-12-09T11:04:41.868Z,7.00
2022-12-09T11:07:12.965Z,7.40
2022-12-09T11:10:07.033Z,12.20
2022-12-09T11:12:41.263Z,10.40
2022-12-09T11:15:27.971Z,11.40
2022-12-09T11:18:02.818Z,1.00
2022-12-09T11:20:32.704Z,6.60
2022-12-09T11:23:13.204Z,7.00
2022-12-09T11:25:58.621Z,12.00
2022-12-09T11:28:33.761Z,14.40
2022-12-09T11:31:33.755Z,12.25
2022-12-09T11:34:26.340Z,12.50
2022-12-09T11:36:58.035Z,10.25
2022-12-09T11:39:33.641Z,9.00
2022-12-09T11:42:17.435Z,10.75
2022-12-09T11:44:58.323Z,13.75
2022-12-09T11:48:20.313Z,6.00
2022-12-09T11:50:33.195Z,10.00
2022-12-09T11:53:09.056Z,9.50
2022-12-09T11:55:42.278Z,9.50
2022-12-09T11:58:21.769Z,10.50
2022-12-09T12:01:07.768Z,4.00
2022-12-09T12:03:38.111Z,4.00
2022-12-09T12:06:16.762Z,4.00
2022-12-09T12:08:51.670Z,3.25
2022-12-09T12:11:26.898Z,8.25
2022-12-09T12:14:17.640Z,6.25
2022-12-09T12:17:22.083Z,7.75
2022-12-09T12:19:52.088Z,6.50
2022-12-09T12:23:01.364Z,12.00
2022-12-09T12:25:40.415Z,27.67
2022-12-09T12:28:29.559Z,10.00
2022-12-09T12:31:29.199Z,29.67
2022-12-09T12:34:35.755Z,8.50
2022-12-09T12:37:18.089Z,14.25
2022-12-09T12:40:03.745Z,18.25
2022-12-09T12:43:15.835Z,7.00
2022-12-09T12:46:14.820Z,3.00
2022-12-09T12:48:53.460Z,4.50
2022-12-09T12:51:23.532Z,12.67
2022-12-09T12:54:21.936Z,4.33
2022-12-09T12:57:08.023Z,7.67
2022-12-09T13:00:08.338Z,9.00
2022-12-09T13:03:26.402Z,6.67
2022-12-09T13:05:57.873Z,3.33
2022-12-09T13:09:09.595Z,8.33
2022-12-09T13:11:46.600Z,3.25
2022-12-09T13:14:25.433Z,8.00
2022-12-09T13:16:53.686Z,3.75
2022-12-09T13:19:37.817Z,7.50
2022-12-09T13:22:06.405Z,7.00
2022-12-09T13:24:50.969Z,3.75
2022-12-09T13:27:43.554Z,5.75
2022-12-09T13:30:48.467Z,8.25
2022-12-09T13:33:47.891Z,6.75
2022-12-09T13:36:46.695Z,9.67
2022-12-09T13:39:39.962Z,7.00
2022-12-09T13:42:46.309Z,3.00
2022-12-09T13:45:34.102Z,8.00
2022-12-09T13:48:30.380Z,7.00
2022-12-09T13:51:00.007Z,3.33
2022-12-09T13:53:34.323Z,6.50
2022-12-09T13:56:17.132Z,4.00
2022-12-09T13:59:09.361Z,7.00
2022-12-09T14:01:45.515Z,4.50
2022-12-09T14:04:15.629Z,9.75
2022-12-09T14:06:45.871Z,6.75
2022-12-09T14:09:25.012Z,4.00
2022-12-09T14:11:54.542Z,5.75
2022-12-09T14:14:27.519Z,15.75
2022-12-09T14:17:04.242Z,7.75
2022-12-09T14:19:34.056Z,7.00
2022-12-09T14:22:22.799Z,4.00
2022-12-09T14:24:56.199Z,7.00
2022-12-09T14:27:29.457Z,13.00
2022-12-09T14:30:01.195Z,6.25
2022-12-09T14:32:35.440Z,7.00
2022-12-09T14:35:20.373Z,6.25
2022-12-09T14:38:04.568Z,4.25
2022-12-09T14:40:32.201Z,3.50
2022-12-09T14:43:10.922Z,6.25
2022-12-09T14:46:03.893Z,6.25
2022-12-09T14:48:38.402Z,3.00
2022-12-09T14:51:07.315Z,2.75
2022-12-09T14:53:37.036Z,9.50
2022-12-09T14:56:05.426Z,4.00
2022-12-09T14:58:33.005Z,4.50
2022-12-09T15:01:06.272Z,6.00
2022-12-09T15:03:39.446Z,6.00
2022-12-09T15:06:17.831Z,6.00
2022-12-09T15:08:45.390Z,4.50
2022-12-09T15:11:17.043Z,6.00
2022-12-09T15:13:47.711Z,3.25
2022-12-09T15:16:18.811Z,3.75
2022-12-09T15:18:46.868Z,3.00
2022-12-09T15:21:31.084Z,0.00
2022-12-09T15:23:59.979Z,2.50
2022-12-09T15:26:34.328Z,3.25
2022-12-09T15:29:05.341Z,9.50
2022-12-09T15:31:34.656Z,6.25
2022-12-09T15:34:14.667Z,1.00
2022-12-09T15:36:50.216Z,4.00
2022-12-09T15:39:29.619Z,3.00
2022-12-09T15:42:12.971Z,1.50
2022-12-09T15:44:49.291Z,1.00
2022-12-09T15:47:25.764Z,3.00
2022-12-09T15:50:01.558Z,5.00
2022-12-09T15:52:35.059Z,1.50
2022-12-09T15:55:07.452Z,4.00
2022-12-09T15:57:35.917Z,6.25
2022-12-09T16:00:05.251Z,4.00
2022-12-09T16:02:37.868Z,3.75
2022-12-09T16:05:08.249Z,8.50
2022-12-09T16:07:35.856Z,7.75
2022-12-09T16:10:14.278Z,9.75
2022-12-09T16:12:42.758Z,0.00
2022-12-09T16:15:13.397Z,4.25
2022-12-09T16:17:55.474Z,7.00
2022-12-09T16:20:41.281Z,10.00
2022-12-09T16:23:21.990Z,5.33
2022-12-09T16:25:50.387Z,6.75
2022-12-09T16:28:26.922Z,3.00
2022-12-09T16:31:02.567Z,4.50
2022-12-09T16:33:34.781Z,3.00
2022-12-09T16:36:05.677Z,3.75
2022-12-09T16:38:37.277Z,0.25
2022-12-09T16:41:09.536Z,6.25
2022-12-09T16:43:52.407Z,4.00
2022-12-09T16:46:37.818Z,3.50
2022-12-09T16:49:05.496Z,2.25
2022-12-09T16:51:33.466Z,5.00
2022-12-09T16:54:01.472Z,3.75
2022-12-09T16:56:31.631Z,6.75
2022-12-09T16:59:00.015Z,6.00
2022-12-09T17:01:34.068Z,9.75
2022-12-09T17:04:28.219Z,9.50
2022-12-09T17:06:55.962Z,4.00
2022-12-09T17:09:23.462Z,5.50
2022-12-09T17:11:50.882Z,5.50
2022-12-09T17:14:18.826Z,8.25
2022-12-09T17:16:46.566Z,3.00
2022-12-09T17:19:14.095Z,3.00
2022-12-09T17:21:41.685Z,5.33
2022-12-09T17:24:11.819Z,2.33
2022-12-09T17:26:40.598Z,1.50
2022-12-09T17:29:07.932Z,2.00
2022-12-09T17:31:35.284Z,1.50
2022-12-09T17:34:03.092Z,3.50
2022-12-09T17:36:30.861Z,1.50
2022-12-09T17:39:03.643Z,4.00
2022-12-09T17:41:31.176Z,7.50
2022-12-09T17:44:01.168Z,10.00
2022-12-09T17:46:29.486Z,5.50
2022-12-09T17:48:57.207Z,1.75
2022-12-09T17:51:24.658Z,6.00
2022-12-09T17:53:52.551Z,2.25
2022-12-09T17:56:22.153Z,1.00
2022-12-09T17:58:56.664Z,1.50
2022-12-09T18:01:24.839Z,1.50
2022-12-09T18:03:57.883Z,6.75
2022-12-09T18:06:31.441Z,5.50
2022-12-09T18:08:58.772Z,4.00
2022-12-09T18:11:26.434Z,2.50
2022-12-09T18:13:54.273Z,9.00
2022-12-09T18:16:21.729Z,1.00
2022-12-09T18:18:49.148Z,1.00
2022-12-09T18:21:18.099Z,3.00
2022-12-09T18:23:45.302Z,4.00
2022-12-09T18:26:15.580Z,3.25
2022-12-09T18:28:43.307Z,2.75
2022-12-09T18:31:13.485Z,6.00
2022-12-09T18:33:41.685Z,7.75
2022-12-09T18:36:15.507Z,3.75
2022-12-09T18:38:44.100Z,7.50
2022-12-09T18:41:26.636Z,3.50
2022-12-09T18:43:55.758Z,6.00
2022-12-09T18:46:36.707Z,11.00
2022-12-09T18:49:12.193Z,3.50
2022-12-09T18:51:41.382Z,7.00
2022-12-09T18:54:09.457Z,3.00
2022-12-09T18:56:37.209Z,2.75
2022-12-09T18:59:07.427Z,8.25
2022-12-09T19:01:41.338Z,3.25
2022-12-09T19:04:16.491Z,2.50
2022-12-09T19:06:46.518Z,4.00
2022-12-09T19:09:17.665Z,10.00
2022-12-09T19:11:46.838Z,0.00
2022-12-09T19:14:15.775Z,5.50
2022-12-09T19:16:44.478Z,3.00
2022-12-09T19:19:17.922Z,3.75
2022-12-09T19:21:46.460Z,2.25
2022-12-09T19:24:28.885Z,1.00
2022-12-09T19:26:58.199Z,3.50
2022-12-09T19:29:28.397Z,1.00
2022-12-09T19:31:57.710Z,1.00
2022-12-09T19:34:28.675Z,0.75
2022-12-09T19:36:59.165Z,1.00
2022-12-09T19:39:30.365Z,1.50
2022-12-09T19:41:59.342Z,6.00
2022-12-09T19:44:59.603Z,4.00
2022-12-09T19:47:15.915Z,1.00
2022-12-09T19:49:44.549Z,0.00
2022-12-09T19:52:12.855Z,0.50
2022-12-09T19:54:40.484Z,1.00
2022-12-09T19:57:07.806Z,3.00
2022-12-09T19:59:36.153Z,0.50
2022-12-09T20:02:03.857Z,1.50
2022-12-09T20:07:19.978Z,1.75
2022-12-09T20:09:47.783Z,1.00
2022-12-09T20:12:15.637Z,1.00
2022-12-09T20:14:43.379Z,0.00
2022-12-09T20:17:11.420Z,3.00
2022-12-09T20:19:39.043Z,1.00
2022-12-09T20:22:06.806Z,4.00
2022-12-09T20:24:34.446Z,0.00
2022-12-09T20:27:02.102Z,0.75
2022-12-09T20:29:35.556Z,1.00
2022-12-09T20:32:06.238Z,0.25
2022-12-09T20:34:34.002Z,1.00
2022-12-09T20:37:01.500Z,1.00
2022-12-09T20:39:28.973Z,1.00
2022-12-09T20:41:56.385Z,1.00
2022-12-09T20:44:24.519Z,4.00
2022-12-09T20:46:53.172Z,1.50
2022-12-09T20:49:26.931Z,1.00
2022-12-09T20:51:54.931Z,4.00
2022-12-09T20:54:22.860Z,1.00
2022-12-09T20:56:50.731Z,1.50
2022-12-09T20:59:18.416Z,3.75
2022-12-09T21:01:47.475Z,3.75
2022-12-09T21:04:16.016Z,0.00
2022-12-09T21:06:43.772Z,1.50
2022-12-09T21:09:19.131Z,3.25
2022-12-09T21:11:47.852Z,3.00
2022-12-09T21:14:20.769Z,1.50
2022-12-09T21:16:50.829Z,1.50
2022-12-09T21:19:25.056Z,1.00
2022-12-09T21:21:53.388Z,1.00
2022-12-09T21:24:21.997Z,0.00
2022-12-09T21:26:49.761Z,2.00
2022-12-09T21:29:17.015Z,0.25
2022-12-09T21:31:46.042Z,0.00
2022-12-09T21:34:13.410Z,1.00
2022-12-09T21:36:43.477Z,1.75
2022-12-09T21:39:13.642Z,2.50
2022-12-09T21:41:42.053Z,2.50
2022-12-09T21:44:18.079Z,1.00
2022-12-09T21:46:46.333Z,2.50
2022-12-09T21:49:14.303Z,0.00
2022-12-09T21:51:42.204Z,5.25
2022-12-09T21:54:09.471Z,1.00
2022-12-09T21:56:37.247Z,4.00
2022-12-09T21:59:07.155Z,4.25
2022-12-09T22:01:37.776Z,2.50
2022-12-09T22:04:08.445Z,1.00
2022-12-09T22:06:36.242Z,6.25
2022-12-09T22:09:05.370Z,0.75
2022-12-09T22:11:35.758Z,2.50
2022-12-09T22:14:04.046Z,1.00
2022-12-09T22:16:43.174Z,0.00
2022-12-09T22:19:16.305Z,3.00
2022-12-09T22:21:43.608Z,0.00
2022-12-09T22:24:13.200Z,0.75
2022-12-09T22:26:43.730Z,3.00
2022-12-09T22:29:13.616Z,5.25
2022-12-09T22:31:42.023Z,3.00
2022-12-09T22:34:16.125Z,3.00
2022-12-09T22:36:44.104Z,3.00
2022-12-09T22:39:17.473Z,0.75
2022-12-09T22:41:46.234Z,3.00
2022-12-09T22:44:15.708Z,3.00
2022-12-09T22:46:44.004Z,2.00
2022-12-09T22:49:14.125Z,0.50
2022-12-09T22:51:42.561Z,0.75
2022-12-09T22:54:10.566Z,0.00
2022-12-09T22:56:40.076Z,0.00
2022-12-09T22:59:08.286Z,4.00
2022-12-09T23:01:37.538Z,0.75
2022-12-09T23:04:07.242Z,2.00
2022-12-09T23:06:37.299Z,3.00
2022-12-09T23:09:06.547Z,0.50
2022-12-09T23:11:33.937Z,4.00
2022-12-09T23:14:01.662Z,6.00
2022-12-09T23:16:29.387Z,0.50
2022-12-09T23:18:58.785Z,3.00
2022-12-09T23:21:32.303Z,2.50
2022-12-09T23:24:03.042Z,1.00
2022-12-09T23:26:32.754Z,1.50
2022-12-09T23:29:01.803Z,0.25
2022-12-09T23:31:32.289Z,3.00
2022-12-09T23:34:00.891Z,0.00
2022-12-09T23:36:32.582Z,0.00
2022-12-09T23:39:01.688Z,5.25
2022-12-09T23:41:29.544Z,7.75
2022-12-09T23:43:57.092Z,8.00
2022-12-09T23:46:27.294Z,0.00
2022-12-09T23:48:56.208Z,4.00
2022-12-09T23:51:32.454Z,1.00
2022-12-09T23:54:05.020Z,1.00
2022-12-09T23:56:36.621Z,1.75
2022-12-09T23:59:06.872Z,0.00
